Kang Hong — VRBA8 — position and weather

sailwx.info

Track history (hours):
 
Tides and Currents Weather Stations Pressure Air Temp Water Temp Dewpoint Dewpoint Depression Visibility Wind Speed Wind Dir Waves Ship Positions

Kang Hong

Last reported at 2018-Jun-18 05:24 UTC. Time now 2018-Jun-25 08:06 UTC.
Position N 36°58' W 076°07'.

Length 190 m; draft 6.7 m.

Type: Cargo ship. MMSI: 477995400.

Date/timePositionNaut miles runAvg speedWind from/ knotsBaromVisibWave heightAir tempDewpointWater temp
2018-Jun-18 05:24N 36°58' W 076°07'11 8.6
2018-Jun-18 04:09N 36°58' W 076°20'1 8.7
2018-Jun-18 03:59N 36°57' W 076°22'3 5.1
2018-Jun-18 03:21N 36°58' W 076°26'0 0.0
2018-Jun-16 12:33N 36°58' W 076°26'0 0.0
2018-Jun-16 12:21N 36°58' W 076°26'0 0.0
2018-Jun-16 12:00N 36°58' W 076°26'0 0.0
2018-Jun-16 11:30N 36°58' W 076°26'0 0.0
2018-Jun-16 11:00N 36°58' W 076°26'0 0.0
2018-Jun-16 10:15N 36°58' W 076°26'0 0.0
2018-Jun-16 10:00N 36°58' W 076°26'0 0.0
2018-Jun-16 09:30N 36°58' W 076°26'0 0.0
2018-Jun-16 08:54N 36°58' W 076°26'0 0.0
2018-Jun-16 07:57N 36°58' W 076°26'0 0.0
2018-Jun-16 07:30N 36°58' W 076°26'0 0.0
2018-Jun-16 07:00N 36°58' W 076°26'0 0.0
2018-Jun-16 06:24N 36°58' W 076°26'0 0.0
2018-Jun-16 05:39N 36°58' W 076°26'0 0.5
2018-Jun-16 05:30N 36°58' W 076°26'3 5.3
2018-Jun-16 04:55N 36°57' W 076°22'0 0.8
2018-Jun-16 04:29N 36°58' W 076°22'0 0.0
2018-Jun-16 03:59N 36°58' W 076°22'0 0.0
2018-Jun-16 03:29N 36°58' W 076°22'0 0.0
2018-Jun-16 03:00N 36°58' W 076°22'0 0.0
2018-Jun-16 02:30N 36°58' W 076°22'0 0.0
2018-Jun-16 02:00N 36°58' W 076°22'0 0.0
2018-Jun-16 01:30N 36°58' W 076°22'0 0.0
2018-Jun-16 01:00N 36°58' W 076°22'0 0.0
2018-Jun-16 00:30N 36°58' W 076°22'40 2.5
2018-Jun-15 08:18N 36°47' W 075°33'0 0.0
2018-Jun-15 04:48N 36°47' W 075°33'0 0.0
2018-Jun-15 03:57N 36°47' W 075°33'  
2018-Jun-12 16:27N 36°52' W 076°20'3 7.8
2018-Jun-12 16:01N 36°50' W 076°18'1 1.3
2018-Jun-12 15:28N 36°49' W 076°17'0 0.0
2018-Jun-12 14:58N 36°49' W 076°17'0 0.0
2018-Jun-12 14:28N 36°49' W 076°17'0 0.0
2018-Jun-12 13:58N 36°49' W 076°17'0 0.0
2018-Jun-12 13:28N 36°49' W 076°17'0 0.0
2018-Jun-12 12:58N 36°49' W 076°17'0 0.0
2018-Jun-12 12:28N 36°49' W 076°17'0 0.0
2018-Jun-12 11:58N 36°49' W 076°17'0 0.0
2018-Jun-12 11:28N 36°49' W 076°17'0 0.0
2018-Jun-12 10:58N 36°49' W 076°17'0 0.0
2018-Jun-12 10:28N 36°49' W 076°17'0 0.0
2018-Jun-12 09:58N 36°49' W 076°17'0 0.0
2018-Jun-12 09:28N 36°49' W 076°17'0 0.0
2018-Jun-12 08:58N 36°49' W 076°17'0 0.0
2018-Jun-12 08:28N 36°49' W 076°17'0 0.0
2018-Jun-12 07:58N 36°49' W 076°17'0 0.0
2018-Jun-12 07:28N 36°49' W 076°17'0 0.0
2018-Jun-12 06:58N 36°49' W 076°17'0 0.0
2018-Jun-12 06:28N 36°49' W 076°17'0 0.0
2018-Jun-12 05:58N 36°49' W 076°17'0 0.0
2018-Jun-12 05:28N 36°49' W 076°17'0 0.0
2018-Jun-12 04:58N 36°49' W 076°17'0 0.0
2018-Jun-12 04:28N 36°49' W 076°17'0 0.0
2018-Jun-12 03:58N 36°49' W 076°17'0 0.0
2018-Jun-12 03:28N 36°49' W 076°17'0 0.0
2018-Jun-12 02:58N 36°49' W 076°17'0 0.0
2018-Jun-12 02:28N 36°49' W 076°17'0 0.0
2018-Jun-12 01:58N 36°49' W 076°17'0 0.0
2018-Jun-12 01:28N 36°49' W 076°17'0 0.0
2018-Jun-12 00:58N 36°49' W 076°17'0 0.0
2018-Jun-12 00:28N 36°49' W 076°17'0 0.0
2018-Jun-11 23:58N 36°49' W 076°17'0 0.0
2018-Jun-11 23:28N 36°49' W 076°17'0 0.0
2018-Jun-11 22:58N 36°49' W 076°17'0 0.0
2018-Jun-11 22:28N 36°49' W 076°17'0 0.0
2018-Jun-11 21:58N 36°49' W 076°17'0 0.0
2018-Jun-11 21:28N 36°49' W 076°17'0 0.0
2018-Jun-11 20:58N 36°49' W 076°17'0 0.0
2018-Jun-11 20:28N 36°49' W 076°17'0 0.0
2018-Jun-11 19:58N 36°49' W 076°17'0 0.0
2018-Jun-11 19:28N 36°49' W 076°17'0 0.0
2018-Jun-11 18:58N 36°49' W 076°17'0 0.0
2018-Jun-11 18:25N 36°49' W 076°17'0 0.0
2018-Jun-11 17:58N 36°49' W 076°17'0 0.0
2018-Jun-11 17:28N 36°49' W 076°17'0 0.0
2018-Jun-11 16:58N 36°49' W 076°17'0 0.0
2018-Jun-11 16:28N 36°49' W 076°17'0 0.0
2018-Jun-11 15:58N 36°49' W 076°17'0 0.0
2018-Jun-11 15:28N 36°49' W 076°17'0 0.0
2018-Jun-11 14:58N 36°49' W 076°17'0 0.0
2018-Jun-11 14:28N 36°49' W 076°17'0 0.0
2018-Jun-11 13:58N 36°49' W 076°17'0 0.0
2018-Jun-11 13:28N 36°49' W 076°17'0 0.0
2018-Jun-11 12:58N 36°49' W 076°17'0 0.0
2018-Jun-11 12:28N 36°49' W 076°17'0 0.0
2018-Jun-11 11:58N 36°49' W 076°17'0 0.0
2018-Jun-11 11:28N 36°49' W 076°17'0 0.0
2018-Jun-11 10:58N 36°49' W 076°17'0 0.0
2018-Jun-11 10:28N 36°49' W 076°17'0 0.0
2018-Jun-11 09:58N 36°49' W 076°17'0 0.0
2018-Jun-11 09:28N 36°49' W 076°17'0 0.0
2018-Jun-11 08:58N 36°49' W 076°17'0 0.0
2018-Jun-11 08:28N 36°49' W 076°17'0 0.0
2018-Jun-11 07:58N 36°49' W 076°17'0 0.0
2018-Jun-11 07:25N 36°49' W 076°17'0 0.0
2018-Jun-11 06:58N 36°49' W 076°17'0 0.0
2018-Jun-11 06:28N 36°49' W 076°17'0 0.0
2018-Jun-11 05:58N 36°49' W 076°17'0 0.0
2018-Jun-11 05:28N 36°49' W 076°17'0 0.0
2018-Jun-11 04:58N 36°49' W 076°17'0 0.0
2018-Jun-11 04:28N 36°49' W 076°17'0 0.0
2018-Jun-11 03:55N 36°49' W 076°17'0 0.0
2018-Jun-11 03:28N 36°49' W 076°17'0 0.0
2018-Jun-11 02:58N 36°49' W 076°17'0 0.0
2018-Jun-11 02:28N 36°49' W 076°17'0 0.0
2018-Jun-11 01:58N 36°49' W 076°17'0 0.0
2018-Jun-11 01:28N 36°49' W 076°17'0 0.0
2018-Jun-11 00:58N 36°49' W 076°17'0 0.0
2018-Jun-11 00:28N 36°49' W 076°17'0 0.0
2018-Jun-10 23:58N 36°49' W 076°17'0 0.0
2018-Jun-10 23:28N 36°49' W 076°17'0 0.0
2018-Jun-10 22:58N 36°49' W 076°17'0 0.0
2018-Jun-10 22:28N 36°49' W 076°17'0 0.0
2018-Jun-10 21:58N 36°49' W 076°17'0 0.0
2018-Jun-10 21:28N 36°49' W 076°17'0 0.0
2018-Jun-10 20:58N 36°49' W 076°17'0 0.0
2018-Jun-10 20:28N 36°49' W 076°17'0 0.0
2018-Jun-10 19:58N 36°49' W 076°17'0 0.0
2018-Jun-10 19:28N 36°49' W 076°17'0 0.0
2018-Jun-10 18:55N 36°49' W 076°17'0 0.0
2018-Jun-10 18:28N 36°49' W 076°17'0 0.0
2018-Jun-10 17:58N 36°49' W 076°17'0 0.0
2018-Jun-10 17:28N 36°49' W 076°17'0 0.0
2018-Jun-10 16:58N 36°49' W 076°17'0 0.0
2018-Jun-10 16:28N 36°49' W 076°17'0 0.0
2018-Jun-10 15:58N 36°49' W 076°17'0 0.0
2018-Jun-10 15:28N 36°49' W 076°17'0 0.0
2018-Jun-10 14:58N 36°49' W 076°17'0 0.0
2018-Jun-10 14:28N 36°49' W 076°17'0 0.0
2018-Jun-10 13:28N 36°49' W 076°17'0 0.0
2018-Jun-10 12:58N 36°49' W 076°17'0 0.0
2018-Jun-10 12:28N 36°49' W 076°17'0 0.0
2018-Jun-10 11:58N 36°49' W 076°17'0 0.0
2018-Jun-10 11:28N 36°49' W 076°17'0 0.0
2018-Jun-10 10:58N 36°49' W 076°17'0 0.0
2018-Jun-10 10:28N 36°49' W 076°17'0 0.1
2018-Jun-10 09:58N 36°49' W 076°17'0 0.0
2018-Jun-10 09:28N 36°49' W 076°17'0 0.0
2018-Jun-10 08:58N 36°49' W 076°17'0 0.0
2018-Jun-10 08:28N 36°49' W 076°17'0 0.0
2018-Jun-10 07:58N 36°49' W 076°17'0 0.0
2018-Jun-10 07:25N 36°49' W 076°17'0 0.0
2018-Jun-10 06:58N 36°49' W 076°17'0 0.0
2018-Jun-10 06:28N 36°49' W 076°17'0 0.0
2018-Jun-10 05:58N 36°49' W 076°17'0 0.0
2018-Jun-10 05:28N 36°49' W 076°17'0 0.0
2018-Jun-10 04:58N 36°49' W 076°17'0 0.0
2018-Jun-10 04:28N 36°49' W 076°17'0 0.0
2018-Jun-10 03:58N 36°49' W 076°17'0 0.0
2018-Jun-10 03:25N 36°49' W 076°17'0 0.0
2018-Jun-10 02:58N 36°49' W 076°17'0 0.0
2018-Jun-10 02:28N 36°49' W 076°17'0 0.0
2018-Jun-10 01:58N 36°49' W 076°17'0 0.0
2018-Jun-10 01:28N 36°49' W 076°17'0 0.0
2018-Jun-10 00:58N 36°49' W 076°17'0 0.0
2018-Jun-10 00:28N 36°49' W 076°17'0 0.0
2018-Jun-09 23:58N 36°49' W 076°17'0 0.0
2018-Jun-09 23:28N 36°49' W 076°17'0 0.0
2018-Jun-09 22:58N 36°49' W 076°17'0 0.0
2018-Jun-09 22:25N 36°49' W 076°17'0 0.0
2018-Jun-09 21:58N 36°49' W 076°17'0 0.0
2018-Jun-09 21:28N 36°49' W 076°17'0 0.0
2018-Jun-09 20:58N 36°49' W 076°17'0 0.0
2018-Jun-09 20:28N 36°49' W 076°17'0 0.0
2018-Jun-09 19:58N 36°49' W 076°17'0 0.0
2018-Jun-09 19:28N 36°49' W 076°17'0 0.0
2018-Jun-09 18:58N 36°49' W 076°17'0 0.0
2018-Jun-09 18:28N 36°49' W 076°17'0 0.0
2018-Jun-09 17:58N 36°49' W 076°17'0 0.0
2018-Jun-09 17:28N 36°49' W 076°17'0 0.0
2018-Jun-09 16:58N 36°49' W 076°17'0 0.0
2018-Jun-09 16:28N 36°49' W 076°17'0 0.0
2018-Jun-09 15:58N 36°49' W 076°17'0 0.0
2018-Jun-09 14:58N 36°49' W 076°17'0 0.0
2018-Jun-09 14:28N 36°49' W 076°17'0 0.0
2018-Jun-09 13:58N 36°49' W 076°17'0 0.0
2018-Jun-09 13:28N 36°49' W 076°17'0 0.0
2018-Jun-09 12:58N 36°49' W 076°17'0 0.0
2018-Jun-09 12:25N 36°49' W 076°17'0 0.0
2018-Jun-09 11:58N 36°49' W 076°17'0 0.0
2018-Jun-09 11:28N 36°49' W 076°17'0 0.0
2018-Jun-09 10:58N 36°49' W 076°17'0 0.0
2018-Jun-09 10:28N 36°49' W 076°17'0 0.0
2018-Jun-09 09:58N 36°49' W 076°17'0 0.0
2018-Jun-09 09:28N 36°49' W 076°17'0 0.0
2018-Jun-09 08:58N 36°49' W 076°17'0 0.0
2018-Jun-09 08:28N 36°49' W 076°17'0 0.0
2018-Jun-09 07:58N 36°49' W 076°17'0 0.0
2018-Jun-09 07:28N 36°49' W 076°17'0 0.0
2018-Jun-09 07:01N 36°49' W 076°17'0 0.0
2018-Jun-09 06:28N 36°49' W 076°17'0 0.0
2018-Jun-09 05:55N 36°49' W 076°17'0 0.0
2018-Jun-09 05:28N 36°49' W 076°17'0 0.0
2018-Jun-09 04:58N 36°49' W 076°17'0 0.0
2018-Jun-09 04:28N 36°49' W 076°17'0 0.0
2018-Jun-09 03:58N 36°49' W 076°17'0 0.0
2018-Jun-09 03:28N 36°49' W 076°17'0 0.0
2018-Jun-09 03:01N 36°49' W 076°17'0 0.0
2018-Jun-09 02:28N 36°49' W 076°17'0 0.0
2018-Jun-09 01:55N 36°49' W 076°17'0 0.0
2018-Jun-09 01:28N 36°49' W 076°17'0 0.0
2018-Jun-09 00:58N 36°49' W 076°17'0 0.0
2018-Jun-09 00:28N 36°49' W 076°17'0 0.0
2018-Jun-08 23:58N 36°49' W 076°17'0 0.0
2018-Jun-08 23:31N 36°49' W 076°17'0 0.0
2018-Jun-08 22:58N 36°49' W 076°17'0 0.0
2018-Jun-08 22:31N 36°49' W 076°17'0 0.0
2018-Jun-08 21:58N 36°49' W 076°17'0 0.0
2018-Jun-08 21:28N 36°49' W 076°17'0 0.0
2018-Jun-08 21:01N 36°49' W 076°17'0 0.0
2018-Jun-08 20:31N 36°49' W 076°17'0 0.0
2018-Jun-08 19:58N 36°49' W 076°17'0 0.0
2018-Jun-08 19:28N 36°49' W 076°17'0 0.0
2018-Jun-08 19:00N 36°49' W 076°17'0 0.0
2018-Jun-08 18:30N 36°49' W 076°17'0 0.0
2018-Jun-08 17:57N 36°49' W 076°17'0 0.3
2018-Jun-08 17:30N 36°49' W 076°17'2 4.2
2018-Jun-08 17:01N 36°51' W 076°18'1 1.6
2018-Jun-08 16:31N 36°52' W 076°19'3 6.3
2018-Jun-08 15:59N 36°55' W 076°20'21 8.0
2018-Jun-08 13:25N 36°55' W 075°55'3 7.3
2018-Jun-08 13:00N 36°53' W 075°52'5 9.9
2018-Jun-08 12:30N 36°50' W 075°47'611.9
2018-Jun-08 12:00N 36°48' W 075°40'5 9.9
2018-Jun-08 11:31N 36°47' W 075°34'3 6.8
2018-Jun-08 11:00N 36°45' W 075°30'612.4
2018-Jun-08 10:31N 36°46' W 075°23'612.4
2018-Jun-08 10:00N 36°46' W 075°15'912.5
2018-Jun-08 09:16N 36°48' W 075°03'312.7
2018-Jun-08 09:00N 36°48' W 074°59'1012.7
2018-Jun-08 08:10N 36°49' W 074°46'213.0
2018-Jun-08 08:00N 36°49' W 074°43'612.2
2018-Jun-08 07:31N 36°52' W 074°36'713.3
2018-Jun-08 07:00N 36°58' W 074°33'713.6
2018-Jun-08 06:30N 37°04' W 074°30'713.7
2018-Jun-08 06:00N 37°11' W 074°27'713.8
2018-Jun-08 05:30N 37°17' W 074°24'  
Track history (hours):
 
Tides and Currents Weather Stations Pressure Air Temp Water Temp Dewpoint Dewpoint Depression Visibility Wind Speed Wind Dir Waves Ship Positions

Kang Hong

Last reported at 2018-Jun-18 05:24 UTC. Time now 2018-Jun-25 08:06 UTC.
Position N 36°58' W 076°07'.

Length 190 m; draft 6.7 m.

Type: Cargo ship. MMSI: 477995400.

Date/timePositionNaut miles runAvg speedWind from/ knotsBaromVisibWave heightAir tempDewpointWater temp
2018-Jun-18 05:24N 36°58' W 076°07'11 8.6
2018-Jun-18 04:09N 36°58' W 076°20'1 8.7
2018-Jun-18 03:59N 36°57' W 076°22'3 5.1
2018-Jun-18 03:21N 36°58' W 076°26'0 0.0
2018-Jun-16 12:33N 36°58' W 076°26'0 0.0
2018-Jun-16 12:21N 36°58' W 076°26'0 0.0
2018-Jun-16 12:00N 36°58' W 076°26'0 0.0
2018-Jun-16 11:30N 36°58' W 076°26'0 0.0
2018-Jun-16 11:00N 36°58' W 076°26'0 0.0
2018-Jun-16 10:15N 36°58' W 076°26'0 0.0
2018-Jun-16 10:00N 36°58' W 076°26'0 0.0
2018-Jun-16 09:30N 36°58' W 076°26'0 0.0
2018-Jun-16 08:54N 36°58' W 076°26'0 0.0
2018-Jun-16 07:57N 36°58' W 076°26'0 0.0
2018-Jun-16 07:30N 36°58' W 076°26'0 0.0
2018-Jun-16 07:00N 36°58' W 076°26'0 0.0
2018-Jun-16 06:24N 36°58' W 076°26'0 0.0
2018-Jun-16 05:39N 36°58' W 076°26'0 0.5
2018-Jun-16 05:30N 36°58' W 076°26'3 5.3
2018-Jun-16 04:55N 36°57' W 076°22'0 0.8
2018-Jun-16 04:29N 36°58' W 076°22'0 0.0
2018-Jun-16 03:59N 36°58' W 076°22'0 0.0
2018-Jun-16 03:29N 36°58' W 076°22'0 0.0
2018-Jun-16 03:00N 36°58' W 076°22'0 0.0
2018-Jun-16 02:30N 36°58' W 076°22'0 0.0
2018-Jun-16 02:00N 36°58' W 076°22'0 0.0
2018-Jun-16 01:30N 36°58' W 076°22'0 0.0
2018-Jun-16 01:00N 36°58' W 076°22'0 0.0
2018-Jun-16 00:30N 36°58' W 076°22'40 2.5
2018-Jun-15 08:18N 36°47' W 075°33'0 0.0
2018-Jun-15 04:48N 36°47' W 075°33'0 0.0
2018-Jun-15 03:57N 36°47' W 075°33'  
2018-Jun-12 16:27N 36°52' W 076°20'3 7.8
2018-Jun-12 16:01N 36°50' W 076°18'1 1.3
2018-Jun-12 15:28N 36°49' W 076°17'0 0.0
2018-Jun-12 14:58N 36°49' W 076°17'0 0.0
2018-Jun-12 14:28N 36°49' W 076°17'0 0.0
2018-Jun-12 13:58N 36°49' W 076°17'0 0.0
2018-Jun-12 13:28N 36°49' W 076°17'0 0.0
2018-Jun-12 12:58N 36°49' W 076°17'0 0.0
2018-Jun-12 12:28N 36°49' W 076°17'0 0.0
2018-Jun-12 11:58N 36°49' W 076°17'0 0.0
2018-Jun-12 11:28N 36°49' W 076°17'0 0.0
2018-Jun-12 10:58N 36°49' W 076°17'0 0.0
2018-Jun-12 10:28N 36°49' W 076°17'0 0.0
2018-Jun-12 09:58N 36°49' W 076°17'0 0.0
2018-Jun-12 09:28N 36°49' W 076°17'0 0.0
2018-Jun-12 08:58N 36°49' W 076°17'0 0.0
2018-Jun-12 08:28N 36°49' W 076°17'0 0.0
2018-Jun-12 07:58N 36°49' W 076°17'0 0.0
2018-Jun-12 07:28N 36°49' W 076°17'0 0.0
2018-Jun-12 06:58N 36°49' W 076°17'0 0.0
2018-Jun-12 06:28N 36°49' W 076°17'0 0.0
2018-Jun-12 05:58N 36°49' W 076°17'0 0.0
2018-Jun-12 05:28N 36°49' W 076°17'0 0.0
2018-Jun-12 04:58N 36°49' W 076°17'0 0.0
2018-Jun-12 04:28N 36°49' W 076°17'0 0.0
2018-Jun-12 03:58N 36°49' W 076°17'0 0.0
2018-Jun-12 03:28N 36°49' W 076°17'0 0.0
2018-Jun-12 02:58N 36°49' W 076°17'0 0.0
2018-Jun-12 02:28N 36°49' W 076°17'0 0.0
2018-Jun-12 01:58N 36°49' W 076°17'0 0.0
2018-Jun-12 01:28N 36°49' W 076°17'0 0.0
2018-Jun-12 00:58N 36°49' W 076°17'0 0.0
2018-Jun-12 00:28N 36°49' W 076°17'0 0.0
2018-Jun-11 23:58N 36°49' W 076°17'0 0.0
2018-Jun-11 23:28N 36°49' W 076°17'0 0.0
2018-Jun-11 22:58N 36°49' W 076°17'0 0.0
2018-Jun-11 22:28N 36°49' W 076°17'0 0.0
2018-Jun-11 21:58N 36°49' W 076°17'0 0.0
2018-Jun-11 21:28N 36°49' W 076°17'0 0.0
2018-Jun-11 20:58N 36°49' W 076°17'0 0.0
2018-Jun-11 20:28N 36°49' W 076°17'0 0.0
2018-Jun-11 19:58N 36°49' W 076°17'0 0.0
2018-Jun-11 19:28N 36°49' W 076°17'0 0.0
2018-Jun-11 18:58N 36°49' W 076°17'0 0.0
2018-Jun-11 18:25N 36°49' W 076°17'0 0.0
2018-Jun-11 17:58N 36°49' W 076°17'0 0.0
2018-Jun-11 17:28N 36°49' W 076°17'0 0.0
2018-Jun-11 16:58N 36°49' W 076°17'0 0.0
2018-Jun-11 16:28N 36°49' W 076°17'0 0.0
2018-Jun-11 15:58N 36°49' W 076°17'0 0.0
2018-Jun-11 15:28N 36°49' W 076°17'0 0.0
2018-Jun-11 14:58N 36°49' W 076°17'0 0.0
2018-Jun-11 14:28N 36°49' W 076°17'0 0.0
2018-Jun-11 13:58N 36°49' W 076°17'0 0.0
2018-Jun-11 13:28N 36°49' W 076°17'0 0.0
2018-Jun-11 12:58N 36°49' W 076°17'0 0.0
2018-Jun-11 12:28N 36°49' W 076°17'0 0.0
2018-Jun-11 11:58N 36°49' W 076°17'0 0.0
2018-Jun-11 11:28N 36°49' W 076°17'0 0.0
2018-Jun-11 10:58N 36°49' W 076°17'0 0.0
2018-Jun-11 10:28N 36°49' W 076°17'0 0.0
2018-Jun-11 09:58N 36°49' W 076°17'0 0.0
2018-Jun-11 09:28N 36°49' W 076°17'0 0.0
2018-Jun-11 08:58N 36°49' W 076°17'0 0.0
2018-Jun-11 08:28N 36°49' W 076°17'0 0.0
2018-Jun-11 07:58N 36°49' W 076°17'0 0.0
2018-Jun-11 07:25N 36°49' W 076°17'0 0.0
2018-Jun-11 06:58N 36°49' W 076°17'0 0.0
2018-Jun-11 06:28N 36°49' W 076°17'0 0.0
2018-Jun-11 05:58N 36°49' W 076°17'0 0.0
2018-Jun-11 05:28N 36°49' W 076°17'0 0.0
2018-Jun-11 04:58N 36°49' W 076°17'0 0.0
2018-Jun-11 04:28N 36°49' W 076°17'0 0.0
2018-Jun-11 03:55N 36°49' W 076°17'0 0.0
2018-Jun-11 03:28N 36°49' W 076°17'0 0.0
2018-Jun-11 02:58N 36°49' W 076°17'0 0.0
2018-Jun-11 02:28N 36°49' W 076°17'0 0.0
2018-Jun-11 01:58N 36°49' W 076°17'0 0.0
2018-Jun-11 01:28N 36°49' W 076°17'0 0.0
2018-Jun-11 00:58N 36°49' W 076°17'0 0.0
2018-Jun-11 00:28N 36°49' W 076°17'0 0.0
2018-Jun-10 23:58N 36°49' W 076°17'0 0.0
2018-Jun-10 23:28N 36°49' W 076°17'0 0.0
2018-Jun-10 22:58N 36°49' W 076°17'0 0.0
2018-Jun-10 22:28N 36°49' W 076°17'0 0.0
2018-Jun-10 21:58N 36°49' W 076°17'0 0.0
2018-Jun-10 21:28N 36°49' W 076°17'0 0.0
2018-Jun-10 20:58N 36°49' W 076°17'0 0.0
2018-Jun-10 20:28N 36°49' W 076°17'0 0.0
2018-Jun-10 19:58N 36°49' W 076°17'0 0.0
2018-Jun-10 19:28N 36°49' W 076°17'0 0.0
2018-Jun-10 18:55N 36°49' W 076°17'0 0.0
2018-Jun-10 18:28N 36°49' W 076°17'0 0.0
2018-Jun-10 17:58N 36°49' W 076°17'0 0.0
2018-Jun-10 17:28N 36°49' W 076°17'0 0.0
2018-Jun-10 16:58N 36°49' W 076°17'0 0.0
2018-Jun-10 16:28N 36°49' W 076°17'0 0.0
2018-Jun-10 15:58N 36°49' W 076°17'0 0.0
2018-Jun-10 15:28N 36°49' W 076°17'0 0.0
2018-Jun-10 14:58N 36°49' W 076°17'0 0.0
2018-Jun-10 14:28N 36°49' W 076°17'0 0.0
2018-Jun-10 13:28N 36°49' W 076°17'0 0.0
2018-Jun-10 12:58N 36°49' W 076°17'0 0.0
2018-Jun-10 12:28N 36°49' W 076°17'0 0.0
2018-Jun-10 11:58N 36°49' W 076°17'0 0.0
2018-Jun-10 11:28N 36°49' W 076°17'0 0.0
2018-Jun-10 10:58N 36°49' W 076°17'0 0.0
2018-Jun-10 10:28N 36°49' W 076°17'0 0.1
2018-Jun-10 09:58N 36°49' W 076°17'0 0.0
2018-Jun-10 09:28N 36°49' W 076°17'0 0.0
2018-Jun-10 08:58N 36°49' W 076°17'0 0.0
2018-Jun-10 08:28N 36°49' W 076°17'0 0.0
2018-Jun-10 07:58N 36°49' W 076°17'0 0.0
2018-Jun-10 07:25N 36°49' W 076°17'0 0.0
2018-Jun-10 06:58N 36°49' W 076°17'0 0.0
2018-Jun-10 06:28N 36°49' W 076°17'0 0.0
2018-Jun-10 05:58N 36°49' W 076°17'0 0.0
2018-Jun-10 05:28N 36°49' W 076°17'0 0.0
2018-Jun-10 04:58N 36°49' W 076°17'0 0.0
2018-Jun-10 04:28N 36°49' W 076°17'0 0.0
2018-Jun-10 03:58N 36°49' W 076°17'0 0.0
2018-Jun-10 03:25N 36°49' W 076°17'0 0.0
2018-Jun-10 02:58N 36°49' W 076°17'0 0.0
2018-Jun-10 02:28N 36°49' W 076°17'0 0.0
2018-Jun-10 01:58N 36°49' W 076°17'0 0.0
2018-Jun-10 01:28N 36°49' W 076°17'0 0.0
2018-Jun-10 00:58N 36°49' W 076°17'0 0.0
2018-Jun-10 00:28N 36°49' W 076°17'0 0.0
2018-Jun-09 23:58N 36°49' W 076°17'0 0.0
2018-Jun-09 23:28N 36°49' W 076°17'0 0.0
2018-Jun-09 22:58N 36°49' W 076°17'0 0.0
2018-Jun-09 22:25N 36°49' W 076°17'0 0.0
2018-Jun-09 21:58N 36°49' W 076°17'0 0.0
2018-Jun-09 21:28N 36°49' W 076°17'0 0.0
2018-Jun-09 20:58N 36°49' W 076°17'0 0.0
2018-Jun-09 20:28N 36°49' W 076°17'0 0.0
2018-Jun-09 19:58N 36°49' W 076°17'0 0.0
2018-Jun-09 19:28N 36°49' W 076°17'0 0.0
2018-Jun-09 18:58N 36°49' W 076°17'0 0.0
2018-Jun-09 18:28N 36°49' W 076°17'0 0.0
2018-Jun-09 17:58N 36°49' W 076°17'0 0.0
2018-Jun-09 17:28N 36°49' W 076°17'0 0.0
2018-Jun-09 16:58N 36°49' W 076°17'0 0.0
2018-Jun-09 16:28N 36°49' W 076°17'0 0.0
2018-Jun-09 15:58N 36°49' W 076°17'0 0.0
2018-Jun-09 14:58N 36°49' W 076°17'0 0.0
2018-Jun-09 14:28N 36°49' W 076°17'0 0.0
2018-Jun-09 13:58N 36°49' W 076°17'0 0.0
2018-Jun-09 13:28N 36°49' W 076°17'0 0.0
2018-Jun-09 12:58N 36°49' W 076°17'0 0.0
2018-Jun-09 12:25N 36°49' W 076°17'0 0.0
2018-Jun-09 11:58N 36°49' W 076°17'0 0.0
2018-Jun-09 11:28N 36°49' W 076°17'0 0.0
2018-Jun-09 10:58N 36°49' W 076°17'0 0.0
2018-Jun-09 10:28N 36°49' W 076°17'0 0.0
2018-Jun-09 09:58N 36°49' W 076°17'0 0.0
2018-Jun-09 09:28N 36°49' W 076°17'0 0.0
2018-Jun-09 08:58N 36°49' W 076°17'0 0.0
2018-Jun-09 08:28N 36°49' W 076°17'0 0.0
2018-Jun-09 07:58N 36°49' W 076°17'0 0.0
2018-Jun-09 07:28N 36°49' W 076°17'0 0.0
2018-Jun-09 07:01N 36°49' W 076°17'0 0.0
2018-Jun-09 06:28N 36°49' W 076°17'0 0.0
2018-Jun-09 05:55N 36°49' W 076°17'0 0.0
2018-Jun-09 05:28N 36°49' W 076°17'0 0.0
2018-Jun-09 04:58N 36°49' W 076°17'0 0.0
2018-Jun-09 04:28N 36°49' W 076°17'0 0.0
2018-Jun-09 03:58N 36°49' W 076°17'0 0.0
2018-Jun-09 03:28N 36°49' W 076°17'0 0.0
2018-Jun-09 03:01N 36°49' W 076°17'0 0.0
2018-Jun-09 02:28N 36°49' W 076°17'0 0.0
2018-Jun-09 01:55N 36°49' W 076°17'0 0.0
2018-Jun-09 01:28N 36°49' W 076°17'0 0.0
2018-Jun-09 00:58N 36°49' W 076°17'0 0.0
2018-Jun-09 00:28N 36°49' W 076°17'0 0.0
2018-Jun-08 23:58N 36°49' W 076°17'0 0.0
2018-Jun-08 23:31N 36°49' W 076°17'0 0.0
2018-Jun-08 22:58N 36°49' W 076°17'0 0.0
2018-Jun-08 22:31N 36°49' W 076°17'0 0.0
2018-Jun-08 21:58N 36°49' W 076°17'0 0.0
2018-Jun-08 21:28N 36°49' W 076°17'0 0.0
2018-Jun-08 21:01N 36°49' W 076°17'0 0.0
2018-Jun-08 20:31N 36°49' W 076°17'0 0.0
2018-Jun-08 19:58N 36°49' W 076°17'0 0.0
2018-Jun-08 19:28N 36°49' W 076°17'0 0.0
2018-Jun-08 19:00N 36°49' W 076°17'0 0.0
2018-Jun-08 18:30N 36°49' W 076°17'0 0.0
2018-Jun-08 17:57N 36°49' W 076°17'0 0.3
2018-Jun-08 17:30N 36°49' W 076°17'2 4.2
2018-Jun-08 17:01N 36°51' W 076°18'1 1.6
2018-Jun-08 16:31N 36°52' W 076°19'3 6.3
2018-Jun-08 15:59N 36°55' W 076°20'21 8.0
2018-Jun-08 13:25N 36°55' W 075°55'3 7.3
2018-Jun-08 13:00N 36°53' W 075°52'5 9.9
2018-Jun-08 12:30N 36°50' W 075°47'611.9
2018-Jun-08 12:00N 36°48' W 075°40'5 9.9
2018-Jun-08 11:31N 36°47' W 075°34'3 6.8
2018-Jun-08 11:00N 36°45' W 075°30'612.4
2018-Jun-08 10:31N 36°46' W 075°23'612.4
2018-Jun-08 10:00N 36°46' W 075°15'912.5
2018-Jun-08 09:16N 36°48' W 075°03'312.7
2018-Jun-08 09:00N 36°48' W 074°59'1012.7
2018-Jun-08 08:10N 36°49' W 074°46'213.0
2018-Jun-08 08:00N 36°49' W 074°43'612.2
2018-Jun-08 07:31N 36°52' W 074°36'713.3
2018-Jun-08 07:00N 36°58' W 074°33'713.6
2018-Jun-08 06:30N 37°04' W 074°30'713.7
2018-Jun-08 06:00N 37°11' W 074°27'713.8
2018-Jun-08 05:30N 37°17' W 074°24'  

Dump ship's entire track history